Check out our new PWSWeather beta!
PWSweather.com
Personal Weather Stations
Station Observations
KWABLAIN13
Ptl Weather, Blaine, WA

Ptl WeatherBlaine, WA

Lat: 48.997393, Lon: -122.748614

Elevation: 57

Station Type: Davis Advantage Pro 2

http://www.ptlnet.net

Latest ConditionsUpdated 10:30:03 AM PST Monday, Feb 24, 2020
Currently Today's Max Today's Min Today's Average
Temperature 43.1°F6.2°C 44.9°F7.2°C 40.1°F4.5°C 41.9°F5.5°C
Dew Point 34.7°F1.5°C 40.7°F4.8°C 32.1°F0.1°C 36.5°F2.5°C
Winds 3.0 mph W4.8 kmh W 14.0 mph -22.5 kmh - - 7.4 mph 11.9 kmh
Wind Gusts 12.0 mph19.3 kmh 16.0 mph25.7 kmh - -
Humidity 72% 91% 70% 81%
Pressure 30.57 in1035.2 mb 30.57 in1035.2 mb 30.26 in1024.7 mb -
Hour Temp Dew Point Humidity Winds Wind Gusts Pressure Precip Precip Rate Daily Precip Total
10:30 AM 43.1°F6.2°C 34.7°F1.5°C 72% 3.0 mph W4.8 kmh W 12.0 mph19.3 kmh 30.57 in1035.2 mb 0.00 in0.0 mm 0.00 in0.0 mm 0.07 in1.8 mm
10:25 AM 43.1°F6.2°C 34.4°F1.3°C 71% 7.0 mph W11.3 kmh W 12.0 mph19.3 kmh 30.56 in1034.9 mb 0.00 in0.0 mm 0.00 in0.0 mm 0.07 in1.8 mm
10:10 AM 42.7°F5.9°C 34.3°F1.3°C 72% 11.0 mph SW17.7 kmh SW 11.0 mph17.7 kmh 30.57 in1035.2 mb 0.00 in0.0 mm 0.00 in0.0 mm 0.07 in1.8 mm
10:05 AM 42.5°F5.8°C 34.8°F1.6°C 74% 6.0 mph WSW9.7 kmh WSW 6.0 mph9.7 kmh 30.56 in1034.9 mb 0.00 in0.0 mm 0.00 in0.0 mm 0.07 in1.8 mm
09:50 AM 42.3°F5.7°C 33.6°F0.9°C 71% 4.0 mph WNW6.4 kmh WNW 10.0 mph16.1 kmh 30.55 in1034.5 mb 0.00 in0.0 mm 0.00 in0.0 mm 0.07 in1.8 mm
09:45 AM 42.3°F5.7°C 34.3°F1.3°C 73% 5.0 mph WSW8.0 kmh WSW 10.0 mph16.1 kmh 30.55 in1034.5 mb 0.00 in0.0 mm 0.00 in0.0 mm 0.07 in1.8 mm
09:30 AM 42.1°F5.6°C 34.1°F1.2°C 73% 5.0 mph W8.0 kmh W 12.0 mph19.3 kmh 30.55 in1034.5 mb 0.00 in0.0 mm 0.00 in0.0 mm 0.07 in1.8 mm
09:25 AM 42.1°F5.6°C 34.1°F1.2°C 73% 11.0 mph WSW17.7 kmh WSW 11.0 mph17.7 kmh 30.54 in1034.2 mb 0.00 in0.0 mm 0.00 in0.0 mm 0.07 in1.8 mm
09:10 AM 42.2°F5.7°C 34.5°F1.4°C 74% 7.0 mph W11.3 kmh W 14.0 mph22.5 kmh 30.54 in1034.2 mb 0.00 in0.0 mm 0.00 in0.0 mm 0.07 in1.8 mm
09:05 AM 42.2°F5.7°C 34.9°F1.6°C 75% 7.0 mph W11.3 kmh W 14.0 mph22.5 kmh 30.54 in1034.2 mb 0.00 in0.0 mm 0.00 in0.0 mm 0.07 in1.8 mm
08:50 AM 42.0°F5.6°C 34.0°F1.1°C 73% 7.0 mph W11.3 kmh W 13.0 mph20.9 kmh 30.53 in1033.9 mb 0.00 in0.0 mm 0.00 in0.0 mm 0.07 in1.8 mm
08:45 AM 42.0°F5.6°C 34.3°F1.3°C 74% 11.0 mph WSW17.7 kmh WSW 13.0 mph20.9 kmh 30.53 in1033.9 mb 0.00 in0.0 mm 0.00 in0.0 mm 0.07 in1.8 mm
08:30 AM 41.7°F5.4°C 34.4°F1.3°C 75% 8.0 mph WSW12.9 kmh WSW 10.0 mph16.1 kmh 30.53 in1033.9 mb 0.00 in0.0 mm 0.00 in0.0 mm 0.07 in1.8 mm
08:24 AM 41.6°F5.3°C 34.3°F1.3°C 75% 4.0 mph WSW6.4 kmh WSW 9.0 mph14.5 kmh 30.53 in1033.9 mb 0.00 in0.0 mm 0.00 in0.0 mm 0.07 in1.8 mm
08:10 AM 41.6°F5.3°C 34.3°F1.3°C 75% 3.0 mph WSW4.8 kmh WSW 12.0 mph19.3 kmh 30.52 in1033.5 mb 0.00 in0.0 mm 0.00 in0.0 mm 0.07 in1.8 mm
08:05 AM 41.6°F5.3°C 34.3°F1.3°C 75% 9.0 mph WSW14.5 kmh WSW 12.0 mph19.3 kmh 30.51 in1033.2 mb 0.00 in0.0 mm 0.00 in0.0 mm 0.07 in1.8 mm
07:49 AM 41.5°F5.3°C 34.2°F1.2°C 75% 6.0 mph WSW9.7 kmh WSW 13.0 mph20.9 kmh 30.50 in1032.8 mb 0.00 in0.0 mm 0.00 in0.0 mm 0.07 in1.8 mm
07:45 AM 41.5°F5.3°C 34.5°F1.4°C 76% 5.0 mph WNW8.0 kmh WNW 13.0 mph20.9 kmh 30.50 in1032.8 mb 0.00 in0.0 mm 0.00 in0.0 mm 0.07 in1.8 mm
07:29 AM 41.4°F5.2°C 32.7°F0.4°C 71% 5.0 mph WSW8.0 kmh WSW 16.0 mph25.7 kmh 30.49 in1032.5 mb 0.00 in0.0 mm 0.00 in0.0 mm 0.07 in1.8 mm
07:24 AM 41.3°F5.2°C 32.3°F0.2°C 70% 10.0 mph SW16.1 kmh SW 16.0 mph25.7 kmh 30.49 in1032.5 mb 0.00 in0.0 mm 0.00 in0.0 mm 0.07 in1.8 mm
07:10 AM 41.2°F5.1°C 32.9°F0.5°C 72% 9.0 mph W14.5 kmh W 9.0 mph14.5 kmh 30.48 in1032.2 mb 0.00 in0.0 mm 0.00 in0.0 mm 0.07 in1.8 mm
07:04 AM 41.1°F5.1°C 32.1°F0.1°C 70% 5.0 mph WSW8.0 kmh WSW 13.0 mph20.9 kmh 30.48 in1032.2 mb 0.00 in0.0 mm 0.00 in0.0 mm 0.07 in1.8 mm
06:49 AM 41.0°F5.0°C 34.7°F1.5°C 78% 5.0 mph W8.0 kmh W 5.0 mph8.0 kmh 30.48 in1032.2 mb 0.00 in0.0 mm 0.00 in0.0 mm 0.07 in1.8 mm
06:45 AM 40.9°F4.9°C 33.9°F1.1°C 76% 6.0 mph WSW9.7 kmh WSW 16.0 mph25.7 kmh 30.48 in1032.2 mb 0.00 in0.0 mm 0.00 in0.0 mm 0.07 in1.8 mm
06:29 AM 40.8°F4.9°C 35.4°F1.9°C 81% 8.0 mph W12.9 kmh W 11.0 mph17.7 kmh 30.47 in1031.8 mb 0.00 in0.0 mm 0.00 in0.0 mm 0.07 in1.8 mm
06:25 AM 40.7°F4.8°C 35.3°F1.8°C 81% 4.0 mph W6.4 kmh W 11.0 mph17.7 kmh 30.47 in1031.8 mb 0.00 in0.0 mm 0.00 in0.0 mm 0.07 in1.8 mm
06:10 AM 40.7°F4.8°C 35.6°F2.0°C 82% 5.0 mph WNW8.0 kmh WNW 11.0 mph17.7 kmh 30.46 in1031.5 mb 0.01 in0.3 mm 0.00 in0.0 mm 0.07 in1.8 mm
06:04 AM 40.7°F4.8°C 36.0°F2.2°C 83% 6.0 mph W9.7 kmh W 9.0 mph14.5 kmh 30.46 in1031.5 mb 0.01 in0.3 mm 0.00 in0.0 mm 0.07 in1.8 mm
05:50 AM 40.7°F4.8°C 35.6°F2.0°C 82% 4.0 mph WNW6.4 kmh WNW 14.0 mph22.5 kmh 30.45 in1031.2 mb 0.02 in0.5 mm 0.00 in0.0 mm 0.07 in1.8 mm
05:44 AM 40.7°F4.8°C 36.0°F2.2°C 83% 7.0 mph W11.3 kmh W 14.0 mph22.5 kmh 30.45 in1031.2 mb 0.02 in0.5 mm 0.00 in0.0 mm 0.07 in1.8 mm
05:29 AM 40.9°F4.9°C 36.1°F2.3°C 83% 6.0 mph WSW9.7 kmh WSW 13.0 mph20.9 kmh 30.44 in1030.8 mb 0.03 in0.8 mm 0.00 in0.0 mm 0.07 in1.8 mm
05:25 AM 41.0°F5.0°C 36.5°F2.5°C 84% 4.0 mph SW6.4 kmh SW 12.0 mph19.3 kmh 30.44 in1030.8 mb 0.03 in0.8 mm 0.00 in0.0 mm 0.07 in1.8 mm
05:10 AM 40.9°F4.9°C 35.8°F2.1°C 82% 9.0 mph W14.5 kmh W 15.0 mph24.1 kmh 30.43 in1030.5 mb 0.04 in1.0 mm 0.12 in3.0 mm 0.07 in1.8 mm
05:05 AM 40.8°F4.9°C 35.7°F2.1°C 82% 6.0 mph WNW9.7 kmh WNW 11.0 mph17.7 kmh 30.43 in1030.5 mb 0.03 in0.8 mm 0.00 in0.0 mm 0.06 in1.5 mm
04:50 AM 40.7°F4.8°C 36.3°F2.4°C 84% 10.0 mph W16.1 kmh W 12.0 mph19.3 kmh 30.42 in1030.1 mb 0.04 in1.0 mm 0.12 in3.0 mm 0.06 in1.5 mm
04:45 AM 40.6°F4.8°C 36.2°F2.3°C 84% 9.0 mph WSW14.5 kmh WSW 12.0 mph19.3 kmh 30.42 in1030.1 mb 0.03 in0.8 mm 0.00 in0.0 mm 0.05 in1.3 mm
04:30 AM 40.4°F4.7°C 36.6°F2.6°C 86% 10.0 mph W16.1 kmh W 12.0 mph19.3 kmh 30.41 in1029.8 mb 0.04 in1.0 mm 0.00 in0.0 mm 0.05 in1.3 mm
04:25 AM 40.3°F4.6°C 36.8°F2.7°C 87% 9.0 mph W14.5 kmh W 12.0 mph19.3 kmh 30.41 in1029.8 mb 0.04 in1.0 mm 0.00 in0.0 mm 0.05 in1.3 mm
04:10 AM 40.1°F4.5°C 37.1°F2.8°C 89% 3.0 mph W4.8 kmh W 14.0 mph22.5 kmh 30.41 in1029.8 mb 0.04 in1.0 mm 0.12 in3.0 mm 0.05 in1.3 mm
04:05 AM 40.1°F4.5°C 37.1°F2.8°C 89% 14.0 mph W22.5 kmh W 14.0 mph22.5 kmh 30.40 in1029.5 mb 0.03 in0.8 mm 0.00 in0.0 mm 0.04 in1.0 mm
03:50 AM 40.3°F4.6°C 37.6°F3.1°C 90% 4.0 mph WSW6.4 kmh WSW 12.0 mph19.3 kmh 30.40 in1029.5 mb 0.04 in1.0 mm 0.00 in0.0 mm 0.04 in1.0 mm
03:45 AM 40.4°F4.7°C 37.7°F3.2°C 90% 7.0 mph NW11.3 kmh NW 11.0 mph17.7 kmh 30.40 in1029.5 mb 0.04 in1.0 mm 0.00 in0.0 mm 0.04 in1.0 mm
03:29 AM 40.6°F4.8°C 37.6°F3.1°C 89% 8.0 mph W12.9 kmh W 14.0 mph22.5 kmh 30.39 in1029.1 mb 0.04 in1.0 mm 0.15 in3.8 mm 0.04 in1.0 mm
03:25 AM 40.7°F4.8°C 38.0°F3.3°C 90% 10.0 mph SW16.1 kmh SW 14.0 mph22.5 kmh 30.39 in1029.1 mb 0.03 in0.8 mm 0.00 in0.0 mm 0.03 in0.8 mm
03:10 AM 40.9°F4.9°C 38.2°F3.4°C 90% 5.0 mph WSW8.0 kmh WSW 7.0 mph11.3 kmh 30.38 in1028.8 mb 0.03 in0.8 mm 0.00 in0.0 mm 0.03 in0.8 mm
03:05 AM 40.9°F4.9°C 38.5°F3.6°C 91% 8.0 mph SW12.9 kmh SW 11.0 mph17.7 kmh 30.38 in1028.8 mb 0.03 in0.8 mm 0.00 in0.0 mm 0.03 in0.8 mm
02:49 AM 41.0°F5.0°C 38.6°F3.7°C 91% 9.0 mph WSW14.5 kmh WSW 12.0 mph19.3 kmh 30.37 in1028.4 mb 0.03 in0.8 mm 0.00 in0.0 mm 0.03 in0.8 mm
02:45 AM 41.0°F5.0°C 38.6°F3.7°C 91% 7.0 mph SW11.3 kmh SW 12.0 mph19.3 kmh 30.36 in1028.1 mb 0.03 in0.8 mm 0.00 in0.0 mm 0.03 in0.8 mm
02:30 AM 41.0°F5.0°C 38.3°F3.5°C 90% 7.0 mph SW11.3 kmh SW 13.0 mph20.9 kmh 30.36 in1028.1 mb 0.03 in0.8 mm 0.00 in0.0 mm 0.03 in0.8 mm
02:25 AM 41.1°F5.1°C 38.1°F3.4°C 89% 10.0 mph SW16.1 kmh SW 13.0 mph20.9 kmh 30.36 in1028.1 mb 0.03 in0.8 mm 0.04 in1.0 mm 0.03 in0.8 mm
02:10 AM 41.7°F5.4°C 38.7°F3.7°C 89% 8.0 mph WSW12.9 kmh WSW 16.0 mph25.7 kmh 30.35 in1027.8 mb 0.02 in0.5 mm 0.00 in0.0 mm 0.02 in0.5 mm
02:05 AM 41.9°F5.5°C 38.9°F3.8°C 89% 4.0 mph SW6.4 kmh SW 13.0 mph20.9 kmh 30.34 in1027.4 mb 0.02 in0.5 mm 0.01 in0.3 mm 0.02 in0.5 mm
01:50 AM 42.8°F6.0°C 38.9°F3.8°C 86% 10.0 mph SW16.1 kmh SW 16.0 mph25.7 kmh 30.33 in1027.1 mb 0.01 in0.3 mm 0.00 in0.0 mm 0.01 in0.3 mm
01:45 AM 43.2°F6.2°C 39.0°F3.9°C 85% 11.0 mph SW17.7 kmh SW 16.0 mph25.7 kmh 30.33 in1027.1 mb 0.01 in0.3 mm 0.04 in1.0 mm 0.01 in0.3 mm
01:29 AM 44.5°F6.9°C 39.7°F4.3°C 83% 6.0 mph SW9.7 kmh SW 16.0 mph25.7 kmh 30.32 in1026.8 mb 0.00 in0.0 mm 0.00 in0.0 mm 0.00 in0.0 mm
01:25 AM 44.7°F7.1°C 39.9°F4.4°C 83% 9.0 mph WSW14.5 kmh WSW 16.0 mph25.7 kmh 30.32 in1026.8 mb 0.00 in0.0 mm 0.00 in0.0 mm 0.00 in0.0 mm
01:10 AM 44.9°F7.2°C 40.4°F4.7°C 84% 5.0 mph W8.0 kmh W 11.0 mph17.7 kmh 30.30 in1026.1 mb 0.00 in0.0 mm 0.00 in0.0 mm 0.00 in0.0 mm
01:05 AM 44.8°F7.1°C 40.6°F4.8°C 85% 9.0 mph SW14.5 kmh SW 12.0 mph19.3 kmh 30.30 in1026.1 mb 0.00 in0.0 mm 0.00 in0.0 mm 0.00 in0.0 mm
12:50 AM 44.6°F7.0°C 40.4°F4.7°C 85% 10.0 mph SW16.1 kmh SW 12.0 mph19.3 kmh 30.29 in1025.7 mb 0.00 in0.0 mm 0.00 in0.0 mm 0.00 in0.0 mm
12:45 AM 44.6°F7.0°C 40.4°F4.7°C 85% 6.0 mph SW9.7 kmh SW 14.0 mph22.5 kmh 30.29 in1025.7 mb 0.00 in0.0 mm 0.00 in0.0 mm 0.00 in0.0 mm
12:29 AM 44.5°F6.9°C 40.3°F4.6°C 85% 9.0 mph WSW14.5 kmh WSW 15.0 mph24.1 kmh 30.27 in1025.1 mb 0.00 in0.0 mm 0.00 in0.0 mm 0.00 in0.0 mm
12:24 AM 44.5°F6.9°C 40.3°F4.6°C 85% 10.0 mph WSW16.1 kmh WSW 15.0 mph24.1 kmh 30.27 in1025.1 mb 0.00 in0.0 mm 0.00 in0.0 mm 0.00 in0.0 mm
12:10 AM 44.6°F7.0°C 40.7°F4.8°C 86% 13.0 mph W20.9 kmh W 13.0 mph20.9 kmh 30.26 in1024.7 mb 0.00 in0.0 mm 0.00 in0.0 mm 0.00 in0.0 mm
12:05 AM 44.5°F6.9°C 40.6°F4.8°C 86% 13.0 mph SW20.9 kmh SW 14.0 mph22.5 kmh 30.26 in1024.7 mb 0.00 in0.0 mm 0.00 in0.0 mm 0.00 in0.0 mm